sensor_id;sensor_type;location;lat;lon;timestamp;P1;durP1;ratioP1;P2;durP2;ratioP2
45842;SDS011;31563;51.744;8.252;2023-02-01T00:00:53;2.53;;;1.30;;
45842;SDS011;31563;51.744;8.252;2023-02-01T00:03:22;5.53;;;1.65;;
45842;SDS011;31563;51.744;8.252;2023-02-01T00:05:58;3.97;;;1.42;;
45842;SDS011;31563;51.744;8.252;2023-02-01T00:08:27;4.03;;;1.45;;
45842;SDS011;31563;51.744;8.252;2023-02-01T00:10:59;4.20;;;1.70;;
45842;SDS011;31563;51.744;8.252;2023-02-01T00:13:28;5.38;;;1.98;;
45842;SDS011;31563;51.744;8.252;2023-02-01T00:16:02;4.30;;;1.58;;
45842;SDS011;31563;51.744;8.252;2023-02-01T00:18:30;3.90;;;1.80;;
45842;SDS011;31563;51.744;8.252;2023-02-01T00:21:00;5.90;;;1.60;;
45842;SDS011;31563;51.744;8.252;2023-02-01T00:25:59;8.43;;;2.30;;
45842;SDS011;31563;51.744;8.252;2023-02-01T00:28:28;12.00;;;3.22;;
45842;SDS011;31563;51.744;8.252;2023-02-01T00:30:57;10.98;;;3.08;;
45842;SDS011;31563;51.744;8.252;2023-02-01T00:33:26;11.50;;;3.00;;
45842;SDS011;31563;51.744;8.252;2023-02-01T00:35:56;10.88;;;3.50;;
45842;SDS011;31563;51.744;8.252;2023-02-01T00:40:54;10.15;;;3.45;;
45842;SDS011;31563;51.744;8.252;2023-02-01T00:43:28;10.40;;;3.47;;
45842;SDS011;31563;51.744;8.252;2023-02-01T00:45:58;7.13;;;3.22;;
45842;SDS011;31563;51.744;8.252;2023-02-01T00:48:26;12.07;;;3.13;;
45842;SDS011;31563;51.744;8.252;2023-02-01T00:50:58;8.45;;;2.67;;
45842;SDS011;31563;51.744;8.252;2023-02-01T00:53:28;6.75;;;3.05;;
45842;SDS011;31563;51.744;8.252;2023-02-01T00:58:25;8.15;;;3.08;;
45842;SDS011;31563;51.744;8.252;2023-02-01T01:01:00;9.25;;;2.75;;
45842;SDS011;31563;51.744;8.252;2023-02-01T01:03:30;10.32;;;2.90;;
45842;SDS011;31563;51.744;8.252;2023-02-01T01:06:00;6.82;;;2.40;;
45842;SDS011;31563;51.744;8.252;2023-02-01T01:08:32;9.48;;;2.78;;
45842;SDS011;31563;51.744;8.252;2023-02-01T01:11:04;8.10;;;2.90;;
45842;SDS011;31563;51.744;8.252;2023-02-01T01:13:33;8.63;;;2.80;;
45842;SDS011;31563;51.744;8.252;2023-02-01T01:16:02;8.00;;;2.58;;
45842;SDS011;31563;51.744;8.252;2023-02-01T01:18:31;7.50;;;2.73;;
45842;SDS011;31563;51.744;8.252;2023-02-01T01:21:00;7.87;;;2.37;;
45842;SDS011;31563;51.744;8.252;2023-02-01T01:23:28;10.65;;;2.75;;
45842;SDS011;31563;51.744;8.252;2023-02-01T01:25:58;7.03;;;2.25;;
45842;SDS011;31563;51.744;8.252;2023-02-01T01:28:27;8.25;;;2.63;;
45842;SDS011;31563;51.744;8.252;2023-02-01T01:30:55;8.05;;;2.42;;
45842;SDS011;31563;51.744;8.252;2023-02-01T01:33:24;8.23;;;2.95;;
45842;SDS011;31563;51.744;8.252;2023-02-01T01:35:52;7.65;;;2.45;;
45842;SDS011;31563;51.744;8.252;2023-02-01T01:38:21;7.88;;;2.40;;
45842;SDS011;31563;51.744;8.252;2023-02-01T01:40:49;6.95;;;2.72;;
45842;SDS011;31563;51.744;8.252;2023-02-01T01:43:19;7.65;;;2.60;;
45842;SDS011;31563;51.744;8.252;2023-02-01T01:45:49;8.02;;;2.65;;
45842;SDS011;31563;51.744;8.252;2023-02-01T01:48:18;6.60;;;2.65;;
45842;SDS011;31563;51.744;8.252;2023-02-01T01:50:55;6.53;;;2.38;;
45842;SDS011;31563;51.744;8.252;2023-02-01T01:53:28;7.35;;;2.20;;
45842;SDS011;31563;51.744;8.252;2023-02-01T01:56:00;5.93;;;2.33;;
45842;SDS011;31563;51.744;8.252;2023-02-01T01:58:30;7.13;;;2.60;;
45842;SDS011;31563;51.744;8.252;2023-02-01T02:01:00;10.48;;;3.00;;
45842;SDS011;31563;51.744;8.252;2023-02-01T02:03:31;8.27;;;2.08;;
45842;SDS011;31563;51.744;8.252;2023-02-01T02:06:02;7.60;;;2.65;;
45842;SDS011;31563;51.744;8.252;2023-02-01T02:08:34;6.18;;;2.35;;
45842;SDS011;31563;51.744;8.252;2023-02-01T02:11:02;6.50;;;2.28;;
45842;SDS011;31563;51.744;8.252;2023-02-01T02:13:32;6.10;;;2.40;;
45842;SDS011;31563;51.744;8.252;2023-02-01T02:16:13;4.70;;;2.50;;
45842;SDS011;31563;51.744;8.252;2023-02-01T02:19:08;7.85;;;2.28;;
45842;SDS011;31563;51.744;8.252;2023-02-01T02:28:11;6.78;;;2.28;;
45842;SDS011;31563;51.744;8.252;2023-02-01T02:31:05;5.75;;;2.35;;
45842;SDS011;31563;51.744;8.252;2023-02-01T02:33:54;5.95;;;2.22;;
45842;SDS011;31563;51.744;8.252;2023-02-01T02:36:30;4.88;;;2.05;;
45842;SDS011;31563;51.744;8.252;2023-02-01T02:39:07;6.00;;;2.35;;
45842;SDS011;31563;51.744;8.252;2023-02-01T02:41:46;5.28;;;2.10;;
45842;SDS011;31563;51.744;8.252;2023-02-01T02:44:42;6.55;;;2.40;;
45842;SDS011;31563;51.744;8.252;2023-02-01T02:47:33;5.90;;;2.22;;
45842;SDS011;31563;51.744;8.252;2023-02-01T02:50:11;6.40;;;2.22;;
45842;SDS011;31563;51.744;8.252;2023-02-01T02:53:03;5.10;;;1.67;;
45842;SDS011;31563;51.744;8.252;2023-02-01T02:55:55;5.45;;;2.15;;
45842;SDS011;31563;51.744;8.252;2023-02-01T02:58:42;8.20;;;3.08;;
45842;SDS011;31563;51.744;8.252;2023-02-01T03:01:28;7.20;;;2.05;;
45842;SDS011;31563;51.744;8.252;2023-02-01T03:04:16;5.30;;;1.90;;
45842;SDS011;31563;51.744;8.252;2023-02-01T03:06:47;7.78;;;2.08;;
45842;SDS011;31563;51.744;8.252;2023-02-01T03:09:17;5.38;;;1.90;;
45842;SDS011;31563;51.744;8.252;2023-02-01T03:11:48;6.28;;;2.35;;
45842;SDS011;31563;51.744;8.252;2023-02-01T03:14:39;3.78;;;1.33;;
45842;SDS011;31563;51.744;8.252;2023-02-01T03:17:11;6.35;;;2.20;;
45842;SDS011;31563;51.744;8.252;2023-02-01T03:19:43;6.18;;;1.75;;
45842;SDS011;31563;51.744;8.252;2023-02-01T03:22:18;6.25;;;1.95;;
45842;SDS011;31563;51.744;8.252;2023-02-01T03:24:50;5.90;;;1.75;;
45842;SDS011;31563;51.744;8.252;2023-02-01T03:27:21;5.50;;;1.85;;
45842;SDS011;31563;51.744;8.252;2023-02-01T03:29:52;4.10;;;1.65;;
45842;SDS011;31563;51.744;8.252;2023-02-01T03:32:23;5.07;;;1.92;;
45842;SDS011;31563;51.744;8.252;2023-02-01T03:34:52;5.43;;;2.10;;
45842;SDS011;31563;51.744;8.252;2023-02-01T03:37:23;5.72;;;1.80;;
45842;SDS011;31563;51.744;8.252;2023-02-01T03:39:53;8.38;;;2.22;;
45842;SDS011;31563;51.744;8.252;2023-02-01T03:42:27;5.57;;;1.90;;
45842;SDS011;31563;51.744;8.252;2023-02-01T03:45:00;6.40;;;1.70;;
45842;SDS011;31563;51.744;8.252;2023-02-01T03:47:34;4.72;;;1.67;;
45842;SDS011;31563;51.744;8.252;2023-02-01T03:50:07;6.50;;;2.28;;
45842;SDS011;31563;51.744;8.252;2023-02-01T03:52:40;5.68;;;1.70;;
45842;SDS011;31563;51.744;8.252;2023-02-01T03:55:12;5.82;;;1.98;;
45842;SDS011;31563;51.744;8.252;2023-02-01T03:57:44;5.75;;;1.65;;
45842;SDS011;31563;51.744;8.252;2023-02-01T04:00:19;5.95;;;1.98;;
45842;SDS011;31563;51.744;8.252;2023-02-01T04:02:50;4.85;;;1.65;;
45842;SDS011;31563;51.744;8.252;2023-02-01T04:05:19;6.33;;;1.80;;
45842;SDS011;31563;51.744;8.252;2023-02-01T04:07:49;6.75;;;1.50;;
45842;SDS011;31563;51.744;8.252;2023-02-01T04:10:17;5.28;;;1.52;;
45842;SDS011;31563;51.744;8.252;2023-02-01T04:12:45;5.03;;;1.45;;
45842;SDS011;31563;51.744;8.252;2023-02-01T04:15:14;5.75;;;2.08;;
45842;SDS011;31563;51.744;8.252;2023-02-01T04:17:42;6.55;;;1.55;;
45842;SDS011;31563;51.744;8.252;2023-02-01T04:20:10;7.03;;;2.10;;
45842;SDS011;31563;51.744;8.252;2023-02-01T04:22:39;5.28;;;1.77;;
45842;SDS011;31563;51.744;8.252;2023-02-01T04:25:09;6.10;;;1.65;;
45842;SDS011;31563;51.744;8.252;2023-02-01T04:27:37;4.78;;;1.67;;
45842;SDS011;31563;51.744;8.252;2023-02-01T04:30:09;6.40;;;1.50;;
45842;SDS011;31563;51.744;8.252;2023-02-01T04:32:38;5.25;;;2.00;;
45842;SDS011;31563;51.744;8.252;2023-02-01T04:35:06;7.80;;;1.95;;
45842;SDS011;31563;51.744;8.252;2023-02-01T04:37:35;5.80;;;1.55;;
45842;SDS011;31563;51.744;8.252;2023-02-01T04:40:04;5.40;;;1.92;;
45842;SDS011;31563;51.744;8.252;2023-02-01T04:42:34;6.68;;;1.80;;
45842;SDS011;31563;51.744;8.252;2023-02-01T04:45:03;6.70;;;1.88;;
45842;SDS011;31563;51.744;8.252;2023-02-01T04:47:31;5.07;;;1.50;;
45842;SDS011;31563;51.744;8.252;2023-02-01T04:50:00;5.07;;;1.70;;
45842;SDS011;31563;51.744;8.252;2023-02-01T04:52:28;4.50;;;1.77;;
45842;SDS011;31563;51.744;8.252;2023-02-01T04:54:56;6.40;;;1.60;;
45842;SDS011;31563;51.744;8.252;2023-02-01T04:57:26;5.05;;;1.60;;
45842;SDS011;31563;51.744;8.252;2023-02-01T04:59:56;5.68;;;1.70;;
45842;SDS011;31563;51.744;8.252;2023-02-01T05:02:24;3.80;;;1.13;;
45842;SDS011;31563;51.744;8.252;2023-02-01T05:04:52;4.53;;;1.40;;
45842;SDS011;31563;51.744;8.252;2023-02-01T05:07:22;5.13;;;2.28;;
45842;SDS011;31563;51.744;8.252;2023-02-01T05:09:50;5.57;;;2.15;;
45842;SDS011;31563;51.744;8.252;2023-02-01T05:12:19;3.80;;;1.75;;
45842;SDS011;31563;51.744;8.252;2023-02-01T05:15:07;4.00;;;1.40;;
45842;SDS011;31563;51.744;8.252;2023-02-01T05:17:35;6.80;;;1.42;;
45842;SDS011;31563;51.744;8.252;2023-02-01T05:20:06;5.63;;;2.13;;
45842;SDS011;31563;51.744;8.252;2023-02-01T05:22:35;4.63;;;1.30;;
45842;SDS011;31563;51.744;8.252;2023-02-01T05:25:04;5.55;;;1.55;;
45842;SDS011;31563;51.744;8.252;2023-02-01T05:27:33;6.93;;;2.25;;
45842;SDS011;31563;51.744;8.252;2023-02-01T05:30:02;6.13;;;1.63;;
45842;SDS011;31563;51.744;8.252;2023-02-01T05:32:32;4.88;;;1.48;;
45842;SDS011;31563;51.744;8.252;2023-02-01T05:35:01;4.47;;;1.40;;
45842;SDS011;31563;51.744;8.252;2023-02-01T05:37:29;5.50;;;1.90;;
45842;SDS011;31563;51.744;8.252;2023-02-01T05:39:57;6.30;;;1.80;;
45842;SDS011;31563;51.744;8.252;2023-02-01T05:42:26;4.22;;;1.23;;
45842;SDS011;31563;51.744;8.252;2023-02-01T05:44:54;7.43;;;1.70;;
45842;SDS011;31563;51.744;8.252;2023-02-01T05:47:23;5.13;;;1.42;;
45842;SDS011;31563;51.744;8.252;2023-02-01T05:49:52;5.20;;;1.40;;
45842;SDS011;31563;51.744;8.252;2023-02-01T05:52:20;4.85;;;1.40;;
45842;SDS011;31563;51.744;8.252;2023-02-01T05:54:49;4.50;;;1.35;;
45842;SDS011;31563;51.744;8.252;2023-02-01T05:57:18;4.25;;;1.38;;
45842;SDS011;31563;51.744;8.252;2023-02-01T05:59:47;6.43;;;1.70;;
45842;SDS011;31563;51.744;8.252;2023-02-01T06:02:15;5.32;;;1.40;;
45842;SDS011;31563;51.744;8.252;2023-02-01T06:04:44;5.70;;;1.40;;
45842;SDS011;31563;51.744;8.252;2023-02-01T06:07:14;11.23;;;2.60;;
45842;SDS011;31563;51.744;8.252;2023-02-01T06:09:42;9.73;;;2.03;;
45842;SDS011;31563;51.744;8.252;2023-02-01T06:12:10;9.00;;;2.10;;
45842;SDS011;31563;51.744;8.252;2023-02-01T06:14:39;9.38;;;2.35;;
45842;SDS011;31563;51.744;8.252;2023-02-01T06:17:09;9.23;;;2.40;;
45842;SDS011;31563;51.744;8.252;2023-02-01T06:19:37;6.43;;;1.65;;
45842;SDS011;31563;51.744;8.252;2023-02-01T06:22:06;9.23;;;2.33;;
45842;SDS011;31563;51.744;8.252;2023-02-01T06:24:36;9.23;;;3.20;;
45842;SDS011;31563;51.744;8.252;2023-02-01T06:27:04;8.27;;;2.22;;
45842;SDS011;31563;51.744;8.252;2023-02-01T06:29:33;9.65;;;2.20;;
45842;SDS011;31563;51.744;8.252;2023-02-01T06:32:01;6.55;;;2.10;;
45842;SDS011;31563;51.744;8.252;2023-02-01T06:34:30;7.28;;;2.00;;
45842;SDS011;31563;51.744;8.252;2023-02-01T06:36:58;6.60;;;2.00;;
45842;SDS011;31563;51.744;8.252;2023-02-01T06:39:27;7.80;;;2.10;;
45842;SDS011;31563;51.744;8.252;2023-02-01T06:41:57;12.32;;;2.88;;
45842;SDS011;31563;51.744;8.252;2023-02-01T06:44:25;10.40;;;2.90;;
45842;SDS011;31563;51.744;8.252;2023-02-01T06:46:53;12.52;;;2.85;;
45842;SDS011;31563;51.744;8.252;2023-02-01T06:49:22;9.57;;;2.42;;
45842;SDS011;31563;51.744;8.252;2023-02-01T06:51:50;7.80;;;2.67;;
45842;SDS011;31563;51.744;8.252;2023-02-01T06:54:19;10.20;;;2.45;;
45842;SDS011;31563;51.744;8.252;2023-02-01T06:56:47;6.65;;;1.73;;
45842;SDS011;31563;51.744;8.252;2023-02-01T06:59:17;11.35;;;2.45;;
45842;SDS011;31563;51.744;8.252;2023-02-01T07:01:45;8.13;;;3.08;;
45842;SDS011;31563;51.744;8.252;2023-02-01T07:04:14;7.65;;;2.20;;
45842;SDS011;31563;51.744;8.252;2023-02-01T07:06:42;10.25;;;2.20;;
45842;SDS011;31563;51.744;8.252;2023-02-01T07:09:10;7.03;;;2.08;;
45842;SDS011;31563;51.744;8.252;2023-02-01T07:11:40;7.07;;;1.80;;
45842;SDS011;31563;51.744;8.252;2023-02-01T07:14:09;8.48;;;2.00;;
45842;SDS011;31563;51.744;8.252;2023-02-01T07:16:39;9.68;;;2.25;;
45842;SDS011;31563;51.744;8.252;2023-02-01T07:19:07;8.38;;;1.90;;
45842;SDS011;31563;51.744;8.252;2023-02-01T07:21:35;8.75;;;2.13;;
45842;SDS011;31563;51.744;8.252;2023-02-01T07:24:04;6.63;;;1.88;;
45842;SDS011;31563;51.744;8.252;2023-02-01T07:26:32;9.65;;;2.17;;
45842;SDS011;31563;51.744;8.252;2023-02-01T07:29:01;6.95;;;1.80;;
45842;SDS011;31563;51.744;8.252;2023-02-01T07:31:29;6.88;;;1.73;;
45842;SDS011;31563;51.744;8.252;2023-02-01T07:33:59;9.57;;;2.47;;
45842;SDS011;31563;51.744;8.252;2023-02-01T07:36:28;8.05;;;2.42;;
45842;SDS011;31563;51.744;8.252;2023-02-01T07:38:57;6.53;;;2.15;;
45842;SDS011;31563;51.744;8.252;2023-02-01T07:41:25;5.38;;;1.73;;
45842;SDS011;31563;51.744;8.252;2023-02-01T07:43:54;7.50;;;2.58;;
45842;SDS011;31563;51.744;8.252;2023-02-01T07:46:23;6.82;;;2.03;;
45842;SDS011;31563;51.744;8.252;2023-02-01T07:48:51;7.47;;;1.88;;
45842;SDS011;31563;51.744;8.252;2023-02-01T07:51:21;4.68;;;1.77;;
45842;SDS011;31563;51.744;8.252;2023-02-01T07:53:49;10.32;;;2.08;;
45842;SDS011;31563;51.744;8.252;2023-02-01T07:56:20;5.63;;;1.85;;
45842;SDS011;31563;51.744;8.252;2023-02-01T07:58:49;5.47;;;2.13;;
45842;SDS011;31563;51.744;8.252;2023-02-01T08:01:18;6.05;;;1.75;;
45842;SDS011;31563;51.744;8.252;2023-02-01T08:03:47;7.97;;;1.42;;
45842;SDS011;31563;51.744;8.252;2023-02-01T08:06:16;9.75;;;1.80;;
45842;SDS011;31563;51.744;8.252;2023-02-01T08:08:47;6.85;;;1.95;;
45842;SDS011;31563;51.744;8.252;2023-02-01T08:11:15;7.03;;;1.80;;
45842;SDS011;31563;51.744;8.252;2023-02-01T08:13:44;4.90;;;1.92;;
45842;SDS011;31563;51.744;8.252;2023-02-01T08:16:13;7.30;;;1.95;;
45842;SDS011;31563;51.744;8.252;2023-02-01T08:18:43;6.45;;;2.10;;
45842;SDS011;31563;51.744;8.252;2023-02-01T08:21:12;7.18;;;2.00;;
45842;SDS011;31563;51.744;8.252;2023-02-01T08:23:41;7.95;;;2.08;;
45842;SDS011;31563;51.744;8.252;2023-02-01T08:26:12;6.75;;;2.15;;
45842;SDS011;31563;51.744;8.252;2023-02-01T08:28:42;5.75;;;1.67;;
45842;SDS011;31563;51.744;8.252;2023-02-01T08:31:12;6.28;;;1.90;;
45842;SDS011;31563;51.744;8.252;2023-02-01T08:33:44;5.70;;;1.52;;
45842;SDS011;31563;51.744;8.252;2023-02-01T08:36:16;7.05;;;1.95;;
45842;SDS011;31563;51.744;8.252;2023-02-01T08:38:45;5.68;;;1.48;;
45842;SDS011;31563;51.744;8.252;2023-02-01T08:41:15;5.47;;;1.42;;
45842;SDS011;31563;51.744;8.252;2023-02-01T08:43:44;5.82;;;1.55;;
45842;SDS011;31563;51.744;8.252;2023-02-01T08:46:14;7.03;;;1.95;;
45842;SDS011;31563;51.744;8.252;2023-02-01T08:48:43;6.82;;;1.77;;
45842;SDS011;31563;51.744;8.252;2023-02-01T08:51:14;6.95;;;1.60;;
45842;SDS011;31563;51.744;8.252;2023-02-01T08:53:44;7.22;;;1.98;;
45842;SDS011;31563;51.744;8.252;2023-02-01T08:56:13;8.18;;;2.00;;
45842;SDS011;31563;51.744;8.252;2023-02-01T08:58:44;6.00;;;1.95;;
45842;SDS011;31563;51.744;8.252;2023-02-01T09:01:13;6.57;;;1.83;;
45842;SDS011;31563;51.744;8.252;2023-02-01T09:03:43;5.78;;;1.50;;
45842;SDS011;31563;51.744;8.252;2023-02-01T09:06:12;5.60;;;1.88;;
45842;SDS011;31563;51.744;8.252;2023-02-01T09:08:42;4.38;;;2.05;;
45842;SDS011;31563;51.744;8.252;2023-02-01T09:11:11;8.50;;;1.98;;
45842;SDS011;31563;51.744;8.252;2023-02-01T09:13:43;6.72;;;1.60;;
45842;SDS011;31563;51.744;8.252;2023-02-01T09:16:11;7.03;;;1.80;;
45842;SDS011;31563;51.744;8.252;2023-02-01T09:18:40;6.38;;;2.05;;
45842;SDS011;31563;51.744;8.252;2023-02-01T09:21:21;5.35;;;1.77;;
45842;SDS011;31563;51.744;8.252;2023-02-01T09:23:50;5.05;;;2.30;;
45842;SDS011;31563;51.744;8.252;2023-02-01T09:26:18;5.60;;;1.65;;
45842;SDS011;31563;51.744;8.252;2023-02-01T09:28:57;5.43;;;1.83;;
45842;SDS011;31563;51.744;8.252;2023-02-01T09:31:25;4.88;;;1.52;;
45842;SDS011;31563;51.744;8.252;2023-02-01T09:33:53;5.70;;;1.50;;
45842;SDS011;31563;51.744;8.252;2023-02-01T09:36:22;6.03;;;1.50;;
45842;SDS011;31563;51.744;8.252;2023-02-01T09:38:50;5.45;;;2.03;;
45842;SDS011;31563;51.744;8.252;2023-02-01T09:41:22;5.18;;;2.00;;
45842;SDS011;31563;51.744;8.252;2023-02-01T09:43:59;5.97;;;1.98;;
45842;SDS011;31563;51.744;8.252;2023-02-01T09:46:39;6.40;;;1.80;;
45842;SDS011;31563;51.744;8.252;2023-02-01T09:49:10;6.82;;;2.10;;
45842;SDS011;31563;51.744;8.252;2023-02-01T09:51:42;7.78;;;2.00;;
45842;SDS011;31563;51.744;8.252;2023-02-01T09:54:13;13.95;;;3.50;;
45842;SDS011;31563;51.744;8.252;2023-02-01T09:56:44;10.77;;;3.83;;
45842;SDS011;31563;51.744;8.252;2023-02-01T09:59:20;13.65;;;3.72;;
45842;SDS011;31563;51.744;8.252;2023-02-01T10:01:58;9.40;;;2.97;;
45842;SDS011;31563;51.744;8.252;2023-02-01T10:04:26;14.00;;;3.17;;
45842;SDS011;31563;51.744;8.252;2023-02-01T10:06:57;12.82;;;3.45;;
45842;SDS011;31563;51.744;8.252;2023-02-01T10:09:51;10.55;;;3.30;;
45842;SDS011;31563;51.744;8.252;2023-02-01T10:12:32;12.52;;;3.33;;
45842;SDS011;31563;51.744;8.252;2023-02-01T10:15:40;10.63;;;3.13;;
45842;SDS011;31563;51.744;8.252;2023-02-01T10:18:23;9.30;;;2.65;;
45842;SDS011;31563;51.744;8.252;2023-02-01T10:21:04;11.07;;;2.67;;
45842;SDS011;31563;51.744;8.252;2023-02-01T10:23:42;11.00;;;2.58;;
45842;SDS011;31563;51.744;8.252;2023-02-01T10:26:35;10.70;;;2.30;;
45842;SDS011;31563;51.744;8.252;2023-02-01T10:29:14;6.90;;;2.25;;
45842;SDS011;31563;51.744;8.252;2023-02-01T10:31:47;7.32;;;2.50;;
45842;SDS011;31563;51.744;8.252;2023-02-01T10:34:17;10.23;;;3.00;;
45842;SDS011;31563;51.744;8.252;2023-02-01T10:36:53;8.20;;;2.60;;
45842;SDS011;31563;51.744;8.252;2023-02-01T10:39:22;10.30;;;2.53;;
45842;SDS011;31563;51.744;8.252;2023-02-01T10:41:51;6.32;;;2.55;;
45842;SDS011;31563;51.744;8.252;2023-02-01T10:44:20;8.10;;;2.05;;
45842;SDS011;31563;51.744;8.252;2023-02-01T10:46:53;8.75;;;2.30;;
45842;SDS011;31563;51.744;8.252;2023-02-01T10:49:22;8.68;;;2.60;;
45842;SDS011;31563;51.744;8.252;2023-02-01T10:51:58;10.32;;;2.63;;
45842;SDS011;31563;51.744;8.252;2023-02-01T10:54:32;7.82;;;2.25;;
45842;SDS011;31563;51.744;8.252;2023-02-01T10:57:02;8.02;;;2.28;;
45842;SDS011;31563;51.744;8.252;2023-02-01T10:59:30;9.50;;;2.85;;
45842;SDS011;31563;51.744;8.252;2023-02-01T11:02:05;10.02;;;2.15;;
45842;SDS011;31563;51.744;8.252;2023-02-01T11:04:45;8.98;;;2.95;;
45842;SDS011;31563;51.744;8.252;2023-02-01T11:07:16;4.80;;;1.85;;
45842;SDS011;31563;51.744;8.252;2023-02-01T11:09:48;8.27;;;1.98;;
45842;SDS011;31563;51.744;8.252;2023-02-01T11:12:22;7.13;;;2.10;;
45842;SDS011;31563;51.744;8.252;2023-02-01T11:14:56;7.90;;;2.55;;
45842;SDS011;31563;51.744;8.252;2023-02-01T11:17:32;7.03;;;2.63;;
45842;SDS011;31563;51.744;8.252;2023-02-01T11:20:03;9.90;;;3.40;;
45842;SDS011;31563;51.744;8.252;2023-02-01T11:22:36;12.32;;;4.00;;
45842;SDS011;31563;51.744;8.252;2023-02-01T11:25:07;10.55;;;3.30;;
45842;SDS011;31563;51.744;8.252;2023-02-01T11:27:37;9.40;;;3.03;;
45842;SDS011;31563;51.744;8.252;2023-02-01T11:30:22;9.30;;;3.35;;
45842;SDS011;31563;51.744;8.252;2023-02-01T11:33:03;11.50;;;3.38;;
45842;SDS011;31563;51.744;8.252;2023-02-01T11:35:32;10.05;;;3.17;;
45842;SDS011;31563;51.744;8.252;2023-02-01T11:38:10;12.88;;;3.10;;
45842;SDS011;31563;51.744;8.252;2023-02-01T11:43:59;8.45;;;2.70;;
45842;SDS011;31563;51.744;8.252;2023-02-01T11:49:13;8.25;;;3.00;;
45842;SDS011;31563;51.744;8.252;2023-02-01T11:51:50;6.28;;;2.20;;
45842;SDS011;31563;51.744;8.252;2023-02-01T11:54:31;6.78;;;2.53;;
45842;SDS011;31563;51.744;8.252;2023-02-01T11:57:21;6.88;;;2.60;;
45842;SDS011;31563;51.744;8.252;2023-02-01T12:00:05;8.98;;;3.00;;
45842;SDS011;31563;51.744;8.252;2023-02-01T12:03:04;8.20;;;2.40;;
45842;SDS011;31563;51.744;8.252;2023-02-01T12:05:54;7.03;;;2.58;;
45842;SDS011;31563;51.744;8.252;2023-02-01T12:08:36;7.45;;;2.88;;
45842;SDS011;31563;51.744;8.252;2023-02-01T12:11:20;9.95;;;2.90;;
45842;SDS011;31563;51.744;8.252;2023-02-01T12:14:00;8.48;;;2.50;;
45842;SDS011;31563;51.744;8.252;2023-02-01T12:16:52;5.78;;;2.55;;
45842;SDS011;31563;51.744;8.252;2023-02-01T12:19:36;7.03;;;2.55;;
45842;SDS011;31563;51.744;8.252;2023-02-01T12:22:26;8.27;;;2.67;;
45842;SDS011;31563;51.744;8.252;2023-02-01T12:25:21;9.23;;;2.75;;
45842;SDS011;31563;51.744;8.252;2023-02-01T12:28:12;6.15;;;2.13;;
45842;SDS011;31563;51.744;8.252;2023-02-01T12:30:57;7.45;;;2.42;;
45842;SDS011;31563;51.744;8.252;2023-02-01T12:33:39;6.63;;;2.30;;
45842;SDS011;31563;51.744;8.252;2023-02-01T12:36:19;8.40;;;2.03;;
45842;SDS011;31563;51.744;8.252;2023-02-01T12:38:55;6.93;;;2.30;;
45842;SDS011;31563;51.744;8.252;2023-02-01T12:41:38;7.68;;;2.50;;
45842;SDS011;31563;51.744;8.252;2023-02-01T12:44:17;7.15;;;2.60;;
45842;SDS011;31563;51.744;8.252;2023-02-01T12:46:54;6.00;;;2.63;;
45842;SDS011;31563;51.744;8.252;2023-02-01T12:49:28;6.22;;;1.90;;
45842;SDS011;31563;51.744;8.252;2023-02-01T12:52:04;6.40;;;2.15;;
45842;SDS011;31563;51.744;8.252;2023-02-01T12:54:36;6.60;;;2.30;;
45842;SDS011;31563;51.744;8.252;2023-02-01T12:57:11;5.70;;;2.38;;
45842;SDS011;31563;51.744;8.252;2023-02-01T12:59:42;4.90;;;1.60;;
45842;SDS011;31563;51.744;8.252;2023-02-01T13:02:16;6.70;;;2.05;;
45842;SDS011;31563;51.744;8.252;2023-02-01T13:04:53;5.40;;;2.00;;
45842;SDS011;31563;51.744;8.252;2023-02-01T13:07:30;7.67;;;2.13;;
45842;SDS011;31563;51.744;8.252;2023-02-01T13:10:05;4.90;;;2.05;;
45842;SDS011;31563;51.744;8.252;2023-02-01T13:12:44;6.60;;;2.13;;
45842;SDS011;31563;51.744;8.252;2023-02-01T13:15:20;7.18;;;2.60;;
45842;SDS011;31563;51.744;8.252;2023-02-01T13:17:52;7.00;;;2.50;;
45842;SDS011;31563;51.744;8.252;2023-02-01T13:20:26;7.57;;;2.10;;
45842;SDS011;31563;51.744;8.252;2023-02-01T13:22:59;6.15;;;2.42;;
45842;SDS011;31563;51.744;8.252;2023-02-01T13:25:35;10.85;;;3.38;;
45842;SDS011;31563;51.744;8.252;2023-02-01T13:28:10;8.82;;;2.47;;
45842;SDS011;31563;51.744;8.252;2023-02-01T13:30:45;7.85;;;2.42;;
45842;SDS011;31563;51.744;8.252;2023-02-01T13:36:39;10.20;;;2.30;;
45842;SDS011;31563;51.744;8.252;2023-02-01T13:39:42;8.05;;;1.90;;
45842;SDS011;31563;51.744;8.252;2023-02-01T13:42:23;6.70;;;1.70;;
45842;SDS011;31563;51.744;8.252;2023-02-01T13:44:56;7.50;;;1.90;;
45842;SDS011;31563;51.744;8.252;2023-02-01T13:47:28;5.90;;;2.10;;
45842;SDS011;31563;51.744;8.252;2023-02-01T13:49:59;6.32;;;2.17;;
45842;SDS011;31563;51.744;8.252;2023-02-01T13:52:34;6.55;;;1.75;;
45842;SDS011;31563;51.744;8.252;2023-02-01T13:55:27;6.18;;;2.10;;
45842;SDS011;31563;51.744;8.252;2023-02-01T13:58:14;5.90;;;1.85;;
45842;SDS011;31563;51.744;8.252;2023-02-01T14:00:46;4.72;;;1.60;;
45842;SDS011;31563;51.744;8.252;2023-02-01T14:03:18;4.22;;;1.92;;
45842;SDS011;31563;51.744;8.252;2023-02-01T14:05:56;7.53;;;1.90;;
45842;SDS011;31563;51.744;8.252;2023-02-01T14:08:36;7.68;;;1.90;;
45842;SDS011;31563;51.744;8.252;2023-02-01T14:11:07;7.38;;;2.53;;
45842;SDS011;31563;51.744;8.252;2023-02-01T14:14:13;7.53;;;2.17;;
45842;SDS011;31563;51.744;8.252;2023-02-01T14:23:27;6.15;;;1.98;;
45842;SDS011;31563;51.744;8.252;2023-02-01T14:28:49;7.00;;;2.10;;
45842;SDS011;31563;51.744;8.252;2023-02-01T14:31:41;7.65;;;2.20;;
45842;SDS011;31563;51.744;8.252;2023-02-01T14:34:29;5.47;;;2.05;;
45842;SDS011;31563;51.744;8.252;2023-02-01T14:37:02;10.93;;;2.25;;
45842;SDS011;31563;51.744;8.252;2023-02-01T14:39:35;9.00;;;2.15;;
45842;SDS011;31563;51.744;8.252;2023-02-01T14:42:14;5.25;;;1.80;;
45842;SDS011;31563;51.744;8.252;2023-02-01T14:44:50;7.28;;;1.95;;
45842;SDS011;31563;51.744;8.252;2023-02-01T14:50:16;11.02;;;2.55;;
45842;SDS011;31563;51.744;8.252;2023-02-01T14:52:58;9.75;;;2.15;;
45842;SDS011;31563;51.744;8.252;2023-02-01T14:55:33;8.50;;;2.30;;
45842;SDS011;31563;51.744;8.252;2023-02-01T14:58:05;6.00;;;2.28;;
45842;SDS011;31563;51.744;8.252;2023-02-01T15:00:46;7.50;;;2.00;;
45842;SDS011;31563;51.744;8.252;2023-02-01T15:03:25;7.80;;;2.10;;
45842;SDS011;31563;51.744;8.252;2023-02-01T15:06:20;10.77;;;2.22;;
45842;SDS011;31563;51.744;8.252;2023-02-01T15:09:00;6.65;;;2.05;;
45842;SDS011;31563;51.744;8.252;2023-02-01T15:11:32;6.68;;;2.13;;
45842;SDS011;31563;51.744;8.252;2023-02-01T15:14:00;8.05;;;2.42;;
45842;SDS011;31563;51.744;8.252;2023-02-01T15:16:28;6.43;;;1.80;;
45842;SDS011;31563;51.744;8.252;2023-02-01T15:19:07;5.72;;;1.90;;
45842;SDS011;31563;51.744;8.252;2023-02-01T15:21:42;4.82;;;1.55;;
45842;SDS011;31563;51.744;8.252;2023-02-01T15:24:12;6.38;;;2.10;;
45842;SDS011;31563;51.744;8.252;2023-02-01T15:26:42;7.63;;;1.80;;
45842;SDS011;31563;51.744;8.252;2023-02-01T15:29:11;5.85;;;1.95;;
45842;SDS011;31563;51.744;8.252;2023-02-01T15:31:40;6.53;;;1.92;;
45842;SDS011;31563;51.744;8.252;2023-02-01T15:34:12;7.03;;;2.05;;
45842;SDS011;31563;51.744;8.252;2023-02-01T15:36:41;6.22;;;2.13;;
45842;SDS011;31563;51.744;8.252;2023-02-01T15:39:27;4.28;;;1.80;;
45842;SDS011;31563;51.744;8.252;2023-02-01T15:41:59;5.60;;;1.75;;
45842;SDS011;31563;51.744;8.252;2023-02-01T15:44:30;5.18;;;1.67;;
45842;SDS011;31563;51.744;8.252;2023-02-01T15:47:05;5.43;;;1.80;;
45842;SDS011;31563;51.744;8.252;2023-02-01T15:49:39;4.40;;;1.52;;
45842;SDS011;31563;51.744;8.252;2023-02-01T15:52:14;5.65;;;2.08;;
45842;SDS011;31563;51.744;8.252;2023-02-01T15:54:49;3.80;;;1.10;;
45842;SDS011;31563;51.744;8.252;2023-02-01T15:57:20;5.30;;;1.90;;